createdAt,value
2018-04-13T00:04:07.121Z,3.41
2018-04-13T00:09:58.033Z,3.35
2018-04-13T00:15:48.864Z,2.95
2018-04-13T00:21:39.742Z,3.04
2018-04-13T00:27:30.607Z,2.37
2018-04-13T00:33:21.450Z,2.41
2018-04-13T00:39:12.428Z,1.62
2018-04-13T00:45:03.156Z,1.9
2018-04-13T00:50:54.047Z,1.9
2018-04-13T00:56:44.938Z,1.8
2018-04-13T01:02:35.782Z,1.66
2018-04-13T01:08:26.653Z,1.54
2018-04-13T01:14:17.543Z,1.77
2018-04-13T01:20:08.377Z,2.09
2018-04-13T01:25:59.326Z,1.89
2018-04-13T01:31:50.108Z,1.85
2018-04-13T01:37:40.978Z,1.59
2018-04-13T01:43:31.828Z,2.05
2018-04-13T01:49:22.682Z,1.64
2018-04-13T01:55:13.559Z,2.05
2018-04-13T02:01:04.420Z,1.85
2018-04-13T02:06:55.272Z,2.25
2018-04-13T02:12:46.146Z,1.84
2018-04-13T02:18:36.991Z,1.48
2018-04-13T02:24:27.823Z,1.42
2018-04-13T02:30:18.728Z,1.48
2018-04-13T02:36:09.620Z,1.79
2018-04-13T02:42:00.471Z,1.62
2018-04-13T02:47:51.312Z,1.74
2018-04-13T02:53:42.172Z,1.46
2018-04-13T02:59:33.033Z,1.71
2018-04-13T03:05:26.084Z,1.55
2018-04-13T03:11:14.760Z,1.38
2018-04-13T03:17:05.567Z,1.2
2018-04-13T03:22:56.500Z,1.43
2018-04-13T03:28:47.320Z,1.52
2018-04-13T03:34:38.220Z,1.67
2018-04-13T03:40:29.019Z,2
2018-04-13T03:46:19.908Z,1.23
2018-04-13T03:52:10.821Z,1.32
2018-04-13T03:58:01.648Z,1.51
2018-04-13T04:03:52.493Z,1.11
2018-04-13T04:09:43.396Z,1.25
2018-04-13T04:15:34.250Z,1.44
2018-04-13T04:21:25.093Z,1.14
2018-04-13T04:27:16.010Z,1.25
2018-04-13T04:33:06.824Z,1.44
2018-04-13T04:38:57.700Z,3.19
2018-04-13T04:44:48.551Z,5.46
2018-04-13T04:50:39.440Z,9.23
2018-04-13T04:56:30.298Z,12.13
2018-04-13T05:02:21.087Z,12.88
2018-04-13T05:08:11.976Z,13.59
2018-04-13T05:14:02.864Z,16
2018-04-13T05:19:53.706Z,18.2
2018-04-13T05:25:44.525Z,22.41
2018-04-13T05:31:35.536Z,25.8
2018-04-13T05:37:26.294Z,21.89
2018-04-13T05:43:17.219Z,19.08
2018-04-13T05:49:08.005Z,15.27
2018-04-13T05:54:58.893Z,14.6
2018-04-13T06:00:49.747Z,12.86
2018-04-13T06:06:40.566Z,27.54
2018-04-13T06:12:31.528Z,51.9
2018-04-13T06:18:22.283Z,58.12
2018-04-13T06:24:13.273Z,62.3
2018-04-13T06:30:04.106Z,50.84
2018-04-13T06:35:54.974Z,56.27
2018-04-13T06:41:45.745Z,76.31
2018-04-13T06:47:36.654Z,79.44
2018-04-13T06:53:27.510Z,76.53
2018-04-13T06:59:18.331Z,87.26
2018-04-13T07:05:09.278Z,96.86
2018-04-13T07:11:00.079Z,100.95
2018-04-13T07:16:50.949Z,101.26
2018-04-13T07:22:41.806Z,106.74
2018-04-13T07:28:32.684Z,62.61
2018-04-13T07:34:23.542Z,72.47
2018-04-13T07:40:14.417Z,78.56
2018-04-13T07:46:05.294Z,92.15
2018-04-13T07:51:56.141Z,97.33
2018-04-13T07:57:47.005Z,89.92
2018-04-13T08:03:37.891Z,104.17
2018-04-13T08:09:29.352Z,71.32
2018-04-13T08:15:19.664Z,69.81
2018-04-13T08:21:10.452Z,51.44
2018-04-13T08:27:01.366Z,53.87
2018-04-13T08:32:52.190Z,52.5
2018-04-13T08:38:43.046Z,61.55
2018-04-13T08:44:33.918Z,68.74
2018-04-13T08:50:24.759Z,53.12
2018-04-13T08:56:15.740Z,53.67
2018-04-13T09:02:06.527Z,48.15
2018-04-13T09:07:57.429Z,47.09
2018-04-13T09:13:48.274Z,45.02
2018-04-13T09:19:39.191Z,87.36
2018-04-13T09:25:30.004Z,85.28
2018-04-13T09:31:20.903Z,104.37
2018-04-13T09:37:11.789Z,97.95
2018-04-13T09:43:02.612Z,103.04
2018-04-13T09:48:53.487Z,80.54
2018-04-13T09:54:44.347Z,78.58
2018-04-13T10:00:35.268Z,80.19
2018-04-13T10:06:26.160Z,84.36
2018-04-13T10:12:16.954Z,92.9
2018-04-13T10:18:07.901Z,100.86
2018-04-13T10:23:58.698Z,88.15
2018-04-13T10:29:49.614Z,73.88
2018-04-13T10:35:40.481Z,84.16
2018-04-13T10:41:31.358Z,66.58
2018-04-13T10:47:22.278Z,37.67
2018-04-13T10:53:13.135Z,34.2
2018-04-13T10:59:04.013Z,26.65
2018-04-13T11:04:54.929Z,31.21
2018-04-13T11:10:45.779Z,15.4
2018-04-13T11:16:36.704Z,12.1
2018-04-13T11:22:27.541Z,8.99
2018-04-13T11:28:18.513Z,5.86
2018-04-13T11:34:09.346Z,44.13
2018-04-13T11:40:00.224Z,55.91
2018-04-13T11:45:51.140Z,47.59
2018-04-13T11:51:42.043Z,40.31
2018-04-13T11:57:32.937Z,33.79
2018-04-13T12:03:23.848Z,25.39
2018-04-13T12:09:14.751Z,75.33
2018-04-13T12:15:05.681Z,60.04
2018-04-13T12:20:56.567Z,75
2018-04-13T12:26:47.576Z,57.65
2018-04-13T12:32:38.422Z,49.92
2018-04-13T12:38:29.351Z,41.19
2018-04-13T12:44:20.310Z,20.97
2018-04-13T12:50:11.191Z,40.7
2018-04-13T12:56:02.090Z,75.38
2018-04-13T13:01:53.061Z,75.5
2018-04-13T13:07:43.979Z,49.56
2018-04-13T13:13:34.937Z,121.57
2018-04-13T13:19:25.853Z,75.99
2018-04-13T13:25:16.760Z,46.18
2018-04-13T13:31:07.733Z,56.69
2018-04-13T13:36:58.670Z,38.11
2018-04-13T13:42:49.580Z,27.09
2018-04-13T13:48:40.440Z,21.92
2018-04-13T13:54:31.387Z,13.76
2018-04-13T14:00:22.292Z,11.57
2018-04-13T14:06:13.226Z,7.91
2018-04-13T14:12:04.161Z,6.45
2018-04-13T14:17:55.071Z,4.24
2018-04-13T14:23:45.995Z,3.38
2018-04-13T14:29:36.913Z,2.46
2018-04-13T14:35:27.828Z,2.1
2018-04-13T14:41:18.843Z,2.04
2018-04-13T14:47:09.645Z,1.88
2018-04-13T14:53:00.585Z,1.92
2018-04-13T14:58:51.506Z,1.95
2018-04-13T15:04:42.414Z,1.88
2018-04-13T15:10:33.296Z,1.85
2018-04-13T15:16:24.278Z,2
2018-04-13T15:22:15.138Z,1.81
2018-04-13T15:28:06.058Z,1.52
2018-04-13T15:33:56.967Z,1.61
2018-04-13T15:39:47.844Z,1.76
2018-04-13T15:45:38.711Z,1.96
2018-04-13T15:51:29.662Z,1.84
2018-04-13T15:57:20.559Z,2.13
2018-04-13T16:03:11.480Z,1.67
2018-04-13T16:09:02.356Z,1.74
2018-04-13T16:14:53.248Z,1.89
2018-04-13T16:20:44.149Z,1.68
2018-04-13T16:26:35.054Z,1.96
2018-04-13T16:32:25.990Z,1.58
2018-04-13T16:38:16.875Z,1.83
2018-04-13T16:44:07.717Z,2.08
2018-04-13T16:49:58.628Z,1.89
2018-04-13T16:55:49.514Z,2.07
2018-04-13T17:01:40.396Z,1.78
2018-04-13T17:07:31.338Z,1.77
2018-04-13T17:13:22.262Z,2.05
2018-04-13T17:19:13.137Z,1.98
2018-04-13T17:25:03.988Z,1.76
2018-04-13T17:30:54.915Z,2.34
2018-04-13T17:36:45.826Z,2.2
2018-04-13T17:42:36.717Z,2.01
2018-04-13T17:48:27.577Z,2.05
2018-04-13T17:54:18.488Z,2.31
2018-04-13T18:00:09.342Z,2.25
2018-04-13T18:06:00.256Z,2.4
2018-04-13T18:11:51.173Z,2.01
2018-04-13T18:17:42.039Z,2.45
2018-04-13T18:23:32.994Z,3.08
2018-04-13T18:29:23.851Z,2.7
2018-04-13T18:35:14.716Z,2.57
2018-04-13T18:41:05.590Z,3.42
2018-04-13T18:46:56.507Z,2.42
2018-04-13T18:52:47.406Z,3.25
2018-04-13T18:58:38.232Z,2.83
2018-04-13T19:04:29.174Z,3.06
2018-04-13T19:10:20.112Z,2.42
2018-04-13T19:16:10.989Z,2.87
2018-04-13T19:22:01.816Z,2.89
2018-04-13T19:27:52.701Z,3.07
2018-04-13T19:33:43.566Z,5.89
2018-04-13T19:39:34.503Z,3.42
2018-04-13T19:45:25.455Z,2.47
2018-04-13T19:51:16.212Z,2.52
2018-04-13T19:57:07.160Z,2.92
2018-04-13T20:02:58.002Z,2.24
2018-04-13T20:08:48.991Z,2.52
2018-04-13T20:14:39.773Z,2.65
2018-04-13T20:20:30.598Z,5.03
2018-04-13T20:26:21.510Z,3.74
2018-04-13T20:32:12.417Z,3.49
2018-04-13T20:38:03.261Z,3.17
2018-04-13T20:43:54.176Z,2.83
2018-04-13T20:49:45.010Z,2.74
2018-04-13T20:55:35.895Z,2.45
2018-04-13T21:01:26.755Z,2.84
2018-04-13T21:07:17.637Z,3.09
2018-04-13T21:13:08.588Z,3.17
2018-04-13T21:18:59.370Z,3.33
2018-04-13T21:24:50.300Z,3.47
2018-04-13T21:30:41.229Z,2.84
2018-04-13T21:36:32.026Z,3.13
2018-04-13T21:42:23.014Z,3.15
2018-04-13T21:48:13.802Z,3
2018-04-13T21:54:04.746Z,3.06
2018-04-13T21:59:55.558Z,2.9
2018-04-13T22:05:46.414Z,3.05
2018-04-13T22:11:37.313Z,3.64
2018-04-13T22:17:28.180Z,3.2
2018-04-13T22:23:19.117Z,3.35
2018-04-13T22:29:09.989Z,2.9
2018-04-13T22:35:00.825Z,3.61
2018-04-13T22:40:51.697Z,3.09
2018-04-13T22:46:42.646Z,2.9
2018-04-13T22:52:33.473Z,3.18
2018-04-13T22:58:24.299Z,3.36
2018-04-13T23:04:15.208Z,4.11
2018-04-13T23:10:06.122Z,3.58
2018-04-13T23:15:56.922Z,4.49
2018-04-13T23:21:47.853Z,4.64
2018-04-13T23:27:38.640Z,4.66
2018-04-13T23:33:29.529Z,5.06
2018-04-13T23:39:20.406Z,3.41
2018-04-13T23:45:11.254Z,3.84
2018-04-13T23:51:02.155Z,3.64
2018-04-13T23:56:53.059Z,3.88
